sensor_id;sensor_type;location;lat;lon;timestamp;temperature;humidity
70246;SHT30;57637;49.272;8.590;2023-02-26T00:01:32;-1.76;77.42
70246;SHT30;57637;49.272;8.590;2023-02-26T00:04:00;-1.81;77.67
70246;SHT30;57637;49.272;8.590;2023-02-26T00:06:27;-1.83;78.08
70246;SHT30;57637;49.272;8.590;2023-02-26T00:08:53;-1.81;78.14
70246;SHT30;57637;49.272;8.590;2023-02-26T00:11:19;-1.81;77.98
70246;SHT30;57637;49.272;8.590;2023-02-26T00:13:45;-1.74;78.17
70246;SHT30;57637;49.272;8.590;2023-02-26T00:16:27;-1.78;77.91
70246;SHT30;57637;49.272;8.590;2023-02-26T00:18:56;-1.79;78.03
70246;SHT30;57637;49.272;8.590;2023-02-26T00:21:24;-1.79;78.26
70246;SHT30;57637;49.272;8.590;2023-02-26T00:23:50;-1.83;78.37
70246;SHT30;57637;49.272;8.590;2023-02-26T00:26:16;-1.75;78.25
70246;SHT30;57637;49.272;8.590;2023-02-26T00:28:42;-1.54;77.31
70246;SHT30;57637;49.272;8.590;2023-02-26T00:31:08;-1.33;76.74
70246;SHT30;57637;49.272;8.590;2023-02-26T00:33:34;-1.35;76.07
70246;SHT30;57637;49.272;8.590;2023-02-26T00:36:02;-1.38;76.29
70246;SHT30;57637;49.272;8.590;2023-02-26T00:39:00;-1.48;76.42
70246;SHT30;57637;49.272;8.590;2023-02-26T00:41:39;-1.54;76.67
70246;SHT30;57637;49.272;8.590;2023-02-26T00:44:04;-1.50;77.22
70246;SHT30;57637;49.272;8.590;2023-02-26T00:46:35;-1.41;76.59
70246;SHT30;57637;49.272;8.590;2023-02-26T00:52:04;-1.41;76.78
70246;SHT30;57637;49.272;8.590;2023-02-26T00:54:36;-1.44;77.05
70246;SHT30;57637;49.272;8.590;2023-02-26T00:57:01;-1.47;77.45
70246;SHT30;57637;49.272;8.590;2023-02-26T00:59:28;-1.51;77.48
70246;SHT30;57637;49.272;8.590;2023-02-26T01:01:53;-1.61;77.63
70246;SHT30;57637;49.272;8.590;2023-02-26T01:04:20;-1.64;77.93
70246;SHT30;57637;49.272;8.590;2023-02-26T01:06:48;-1.74;78.24
70246;SHT30;57637;49.272;8.590;2023-02-26T01:11:56;-1.81;78.93
70246;SHT30;57637;49.272;8.590;2023-02-26T01:14:25;-1.82;79.19
70246;SHT30;57637;49.272;8.590;2023-02-26T01:19:33;-1.71;78.90
70246;SHT30;57637;49.272;8.590;2023-02-26T01:24:35;-1.78;78.91
70246;SHT30;57637;49.272;8.590;2023-02-26T01:27:01;-1.81;79.11
70246;SHT30;57637;49.272;8.590;2023-02-26T01:29:27;-1.96;78.84
70246;SHT30;57637;49.272;8.590;2023-02-26T01:31:54;-2.11;79.22
70246;SHT30;57637;49.272;8.590;2023-02-26T01:40:18;-2.10;79.93
70246;SHT30;57637;49.272;8.590;2023-02-26T01:42:51;-2.05;80.11
70246;SHT30;57637;49.272;8.590;2023-02-26T01:45:32;-2.07;80.14
70246;SHT30;57637;49.272;8.590;2023-02-26T01:48:03;-1.99;79.95
70246;SHT30;57637;49.272;8.590;2023-02-26T01:50:33;-2.03;79.98
70246;SHT30;57637;49.272;8.590;2023-02-26T01:55:47;-2.03;80.08
70246;SHT30;57637;49.272;8.590;2023-02-26T01:58:15;-2.03;79.88
70246;SHT30;57637;49.272;8.590;2023-02-26T02:00:41;-1.99;79.76
70246;SHT30;57637;49.272;8.590;2023-02-26T02:03:07;-1.97;79.56
70246;SHT30;57637;49.272;8.590;2023-02-26T02:05:35;-1.87;79.42
70246;SHT30;57637;49.272;8.590;2023-02-26T02:08:06;-1.90;79.48
70246;SHT30;57637;49.272;8.590;2023-02-26T02:10:32;-1.86;79.25
70246;SHT30;57637;49.272;8.590;2023-02-26T02:16:11;-1.76;78.84
70246;SHT30;57637;49.272;8.590;2023-02-26T02:25:00;-1.78;78.35
70246;SHT30;57637;49.272;8.590;2023-02-26T02:33:20;-1.95;79.02
70246;SHT30;57637;49.272;8.590;2023-02-26T02:35:54;-1.99;79.28
70246;SHT30;57637;49.272;8.590;2023-02-26T02:38:44;-1.97;79.26
70246;SHT30;57637;49.272;8.590;2023-02-26T02:41:18;-1.92;78.96
70246;SHT30;57637;49.272;8.590;2023-02-26T02:43:49;-1.90;78.96
70246;SHT30;57637;49.272;8.590;2023-02-26T02:46:23;-1.92;78.85
70246;SHT30;57637;49.272;8.590;2023-02-26T02:54:53;-1.99;78.86
70246;SHT30;57637;49.272;8.590;2023-02-26T02:57:33;-1.99;79.07
70246;SHT30;57637;49.272;8.590;2023-02-26T03:00:04;-2.00;79.06
70246;SHT30;57637;49.272;8.590;2023-02-26T03:02:52;-1.95;78.90
70246;SHT30;57637;49.272;8.590;2023-02-26T03:05:23;-1.83;78.91
70246;SHT30;57637;49.272;8.590;2023-02-26T03:07:52;-1.85;78.57
70246;SHT30;57637;49.272;8.590;2023-02-26T03:10:20;-1.85;78.72
70246;SHT30;57637;49.272;8.590;2023-02-26T03:12:46;-1.86;79.02
70246;SHT30;57637;49.272;8.590;2023-02-26T03:15:11;-1.87;78.88
70246;SHT30;57637;49.272;8.590;2023-02-26T03:17:42;-1.90;79.17
70246;SHT30;57637;49.272;8.590;2023-02-26T03:23:02;-1.92;79.65
70246;SHT30;57637;49.272;8.590;2023-02-26T03:25:38;-1.92;79.61
70246;SHT30;57637;49.272;8.590;2023-02-26T03:28:37;-1.83;79.64
70246;SHT30;57637;49.272;8.590;2023-02-26T03:31:14;-1.79;79.25
70246;SHT30;57637;49.272;8.590;2023-02-26T03:44:47;-1.79;79.53
70246;SHT30;57637;49.272;8.590;2023-02-26T03:47:17;-1.69;79.05
70246;SHT30;57637;49.272;8.590;2023-02-26T03:49:44;-1.65;79.00
70246;SHT30;57637;49.272;8.590;2023-02-26T03:52:14;-1.71;79.14
70246;SHT30;57637;49.272;8.590;2023-02-26T03:54:41;-1.76;79.44
70246;SHT30;57637;49.272;8.590;2023-02-26T03:57:10;-1.81;79.54
70246;SHT30;57637;49.272;8.590;2023-02-26T03:59:36;-1.87;79.79
70246;SHT30;57637;49.272;8.590;2023-02-26T04:02:12;-1.93;79.95
70246;SHT30;57637;49.272;8.590;2023-02-26T04:07:14;-1.89;79.77
70246;SHT30;57637;49.272;8.590;2023-02-26T04:09:50;-1.85;79.58
70246;SHT30;57637;49.272;8.590;2023-02-26T04:12:23;-1.86;79.71
70246;SHT30;57637;49.272;8.590;2023-02-26T04:14:49;-1.79;79.47
70246;SHT30;57637;49.272;8.590;2023-02-26T04:17:15;-1.82;79.31
70246;SHT30;57637;49.272;8.590;2023-02-26T04:19:41;-1.81;79.56
70246;SHT30;57637;49.272;8.590;2023-02-26T04:22:06;-1.87;79.74
70246;SHT30;57637;49.272;8.590;2023-02-26T04:24:32;-1.90;79.92
70246;SHT30;57637;49.272;8.590;2023-02-26T04:26:57;-1.90;80.01
70246;SHT30;57637;49.272;8.590;2023-02-26T04:29:22;-1.87;79.80
70246;SHT30;57637;49.272;8.590;2023-02-26T04:31:48;-1.96;79.87
70246;SHT30;57637;49.272;8.590;2023-02-26T04:34:13;-2.02;79.88
70246;SHT30;57637;49.272;8.590;2023-02-26T04:36:39;-2.09;80.06
70246;SHT30;57637;49.272;8.590;2023-02-26T04:39:04;-2.06;80.28
70246;SHT30;57637;49.272;8.590;2023-02-26T04:41:29;-2.14;80.28
70246;SHT30;57637;49.272;8.590;2023-02-26T04:43:55;-2.17;80.52
70246;SHT30;57637;49.272;8.590;2023-02-26T04:46:20;-2.17;80.52
70246;SHT30;57637;49.272;8.590;2023-02-26T04:48:45;-2.22;80.70
70246;SHT30;57637;49.272;8.590;2023-02-26T04:51:11;-2.17;80.62
70246;SHT30;57637;49.272;8.590;2023-02-26T04:53:36;-2.22;80.55
70246;SHT30;57637;49.272;8.590;2023-02-26T04:56:02;-2.19;80.67
70246;SHT30;57637;49.272;8.590;2023-02-26T04:58:27;-2.11;80.41
70246;SHT30;57637;49.272;8.590;2023-02-26T05:00:52;-2.11;80.40
70246;SHT30;57637;49.272;8.590;2023-02-26T05:03:19;-2.13;80.56
70246;SHT30;57637;49.272;8.590;2023-02-26T05:05:44;-2.20;80.65
70246;SHT30;57637;49.272;8.590;2023-02-26T05:08:10;-2.14;80.78
70246;SHT30;57637;49.272;8.590;2023-02-26T05:10:36;-2.16;80.90
70246;SHT30;57637;49.272;8.590;2023-02-26T05:13:01;-2.16;81.21
70246;SHT30;57637;49.272;8.590;2023-02-26T05:15:26;-2.22;81.34
70246;SHT30;57637;49.272;8.590;2023-02-26T05:17:52;-2.16;81.55
70246;SHT30;57637;49.272;8.590;2023-02-26T05:20:17;-2.10;81.69
70246;SHT30;57637;49.272;8.590;2023-02-26T05:22:44;-2.07;81.55
70246;SHT30;57637;49.272;8.590;2023-02-26T05:25:10;-2.07;81.64
70246;SHT30;57637;49.272;8.590;2023-02-26T05:27:38;-2.10;81.55
70246;SHT30;57637;49.272;8.590;2023-02-26T05:30:06;-2.07;81.72
70246;SHT30;57637;49.272;8.590;2023-02-26T05:32:33;-2.05;81.56
70246;SHT30;57637;49.272;8.590;2023-02-26T05:34:58;-2.07;81.66
70246;SHT30;57637;49.272;8.590;2023-02-26T05:37:24;-2.11;81.80
70246;SHT30;57637;49.272;8.590;2023-02-26T05:39:49;-2.16;81.84
70246;SHT30;57637;49.272;8.590;2023-02-26T05:42:14;-2.16;82.12
70246;SHT30;57637;49.272;8.590;2023-02-26T05:44:40;-2.14;82.15
70246;SHT30;57637;49.272;8.590;2023-02-26T05:47:05;-2.20;82.35
70246;SHT30;57637;49.272;8.590;2023-02-26T05:49:31;-2.14;82.40
70246;SHT30;57637;49.272;8.590;2023-02-26T05:51:56;-2.17;82.47
70246;SHT30;57637;49.272;8.590;2023-02-26T05:54:22;-2.16;82.33
70246;SHT30;57637;49.272;8.590;2023-02-26T05:56:47;-2.11;82.22
70246;SHT30;57637;49.272;8.590;2023-02-26T05:59:12;-2.05;81.90
70246;SHT30;57637;49.272;8.590;2023-02-26T06:01:38;-2.06;82.04
70246;SHT30;57637;49.272;8.590;2023-02-26T06:04:04;-2.10;82.10
70246;SHT30;57637;49.272;8.590;2023-02-26T06:06:30;-2.10;82.37
70246;SHT30;57637;49.272;8.590;2023-02-26T06:08:56;-2.02;82.18
70246;SHT30;57637;49.272;8.590;2023-02-26T06:11:21;-1.99;82.09
70246;SHT30;57637;49.272;8.590;2023-02-26T06:13:47;-1.95;81.94
70246;SHT30;57637;49.272;8.590;2023-02-26T06:16:13;-1.96;81.91
70246;SHT30;57637;49.272;8.590;2023-02-26T06:18:38;-1.96;81.93
70246;SHT30;57637;49.272;8.590;2023-02-26T06:21:04;-2.02;81.70
70246;SHT30;57637;49.272;8.590;2023-02-26T06:23:29;-1.96;81.88
70246;SHT30;57637;49.272;8.590;2023-02-26T06:25:54;-2.02;81.89
70246;SHT30;57637;49.272;8.590;2023-02-26T06:28:20;-2.00;82.13
70246;SHT30;57637;49.272;8.590;2023-02-26T06:30:48;-1.95;82.00
70246;SHT30;57637;49.272;8.590;2023-02-26T06:33:14;-1.93;82.12
70246;SHT30;57637;49.272;8.590;2023-02-26T06:35:39;-1.87;82.35
70246;SHT30;57637;49.272;8.590;2023-02-26T06:38:05;-1.76;82.24
70246;SHT30;57637;49.272;8.590;2023-02-26T06:40:31;-1.65;81.96
70246;SHT30;57637;49.272;8.590;2023-02-26T06:42:56;-1.55;81.83
70246;SHT30;57637;49.272;8.590;2023-02-26T06:45:21;-1.44;81.50
70246;SHT30;57637;49.272;8.590;2023-02-26T06:47:49;-1.31;81.21
70246;SHT30;57637;49.272;8.590;2023-02-26T06:50:14;-1.28;80.68
70246;SHT30;57637;49.272;8.590;2023-02-26T06:52:40;-1.30;80.74
70246;SHT30;57637;49.272;8.590;2023-02-26T06:55:06;-1.07;80.31
70246;SHT30;57637;49.272;8.590;2023-02-26T06:57:32;-0.96;79.97
70246;SHT30;57637;49.272;8.590;2023-02-26T06:59:57;-0.79;80.32
70246;SHT30;57637;49.272;8.590;2023-02-26T07:02:23;-0.53;79.50
70246;SHT30;57637;49.272;8.590;2023-02-26T07:04:48;-0.32;78.77
70246;SHT30;57637;49.272;8.590;2023-02-26T07:07:14;-0.09;78.52
70246;SHT30;57637;49.272;8.590;2023-02-26T07:09:40;-0.05;77.72
70246;SHT30;57637;49.272;8.590;2023-02-26T07:12:06;-0.33;77.97
70246;SHT30;57637;49.272;8.590;2023-02-26T07:14:32;-0.49;78.12
70246;SHT30;57637;49.272;8.590;2023-02-26T07:16:59;-0.48;78.39
70246;SHT30;57637;49.272;8.590;2023-02-26T07:19:25;-0.29;78.55
70246;SHT30;57637;49.272;8.590;2023-02-26T07:21:50;-0.05;77.50
70246;SHT30;57637;49.272;8.590;2023-02-26T07:24:15;-0.04;77.57
70246;SHT30;57637;49.272;8.590;2023-02-26T07:26:41;0.07;77.09
70246;SHT30;57637;49.272;8.590;2023-02-26T07:29:06;0.07;76.92
70246;SHT30;57637;49.272;8.590;2023-02-26T07:31:31;0.06;76.27
70246;SHT30;57637;49.272;8.590;2023-02-26T07:33:57;0.07;76.45
70246;SHT30;57637;49.272;8.590;2023-02-26T07:36:22;0.34;76.10
70246;SHT30;57637;49.272;8.590;2023-02-26T07:38:48;0.36;75.52
70246;SHT30;57637;49.272;8.590;2023-02-26T07:41:13;0.46;75.43
70246;SHT30;57637;49.272;8.590;2023-02-26T07:43:39;0.53;75.58
70246;SHT30;57637;49.272;8.590;2023-02-26T07:46:04;0.46;75.30
70246;SHT30;57637;49.272;8.590;2023-02-26T07:48:30;0.30;74.91
70246;SHT30;57637;49.272;8.590;2023-02-26T07:50:55;0.23;75.33
70246;SHT30;57637;49.272;8.590;2023-02-26T07:53:21;0.20;75.45
70246;SHT30;57637;49.272;8.590;2023-02-26T07:55:46;0.24;75.93
70246;SHT30;57637;49.272;8.590;2023-02-26T07:58:12;0.32;75.77
70246;SHT30;57637;49.272;8.590;2023-02-26T08:00:37;0.24;75.54
70246;SHT30;57637;49.272;8.590;2023-02-26T08:03:02;0.24;75.78
70246;SHT30;57637;49.272;8.590;2023-02-26T08:05:28;0.16;74.91
70246;SHT30;57637;49.272;8.590;2023-02-26T08:07:53;0.19;75.59
70246;SHT30;57637;49.272;8.590;2023-02-26T08:10:19;0.14;76.17
70246;SHT30;57637;49.272;8.590;2023-02-26T08:12:44;0.14;76.35
70246;SHT30;57637;49.272;8.590;2023-02-26T08:15:10;0.22;76.30
70246;SHT30;57637;49.272;8.590;2023-02-26T08:17:38;0.23;76.47
70246;SHT30;57637;49.272;8.590;2023-02-26T08:20:04;0.27;76.26
70246;SHT30;57637;49.272;8.590;2023-02-26T08:22:30;0.37;75.25
70246;SHT30;57637;49.272;8.590;2023-02-26T08:24:56;0.34;74.87
70246;SHT30;57637;49.272;8.590;2023-02-26T08:27:21;0.47;74.98
70246;SHT30;57637;49.272;8.590;2023-02-26T08:29:47;0.44;74.96
70246;SHT30;57637;49.272;8.590;2023-02-26T08:32:14;0.32;74.46
70246;SHT30;57637;49.272;8.590;2023-02-26T08:34:40;0.32;75.16
70246;SHT30;57637;49.272;8.590;2023-02-26T08:37:05;0.23;75.01
70246;SHT30;57637;49.272;8.590;2023-02-26T08:39:33;0.30;75.38
70246;SHT30;57637;49.272;8.590;2023-02-26T08:42:02;0.30;75.27
70246;SHT30;57637;49.272;8.590;2023-02-26T08:44:28;0.27;74.17
70246;SHT30;57637;49.272;8.590;2023-02-26T08:46:53;0.24;74.41
70246;SHT30;57637;49.272;8.590;2023-02-26T08:49:20;0.32;74.45
70246;SHT30;57637;49.272;8.590;2023-02-26T08:51:45;0.43;74.30
70246;SHT30;57637;49.272;8.590;2023-02-26T08:54:11;0.53;73.73
70246;SHT30;57637;49.272;8.590;2023-02-26T08:56:36;0.56;73.96
70246;SHT30;57637;49.272;8.590;2023-02-26T08:59:02;0.63;74.08
70246;SHT30;57637;49.272;8.590;2023-02-26T09:01:27;0.68;73.56
70246;SHT30;57637;49.272;8.590;2023-02-26T09:03:53;0.75;73.37
70246;SHT30;57637;49.272;8.590;2023-02-26T09:06:18;0.77;73.04
70246;SHT30;57637;49.272;8.590;2023-02-26T09:08:43;0.74;72.83
70246;SHT30;57637;49.272;8.590;2023-02-26T09:11:09;0.85;72.06
70246;SHT30;57637;49.272;8.590;2023-02-26T09:13:34;0.98;71.42
70246;SHT30;57637;49.272;8.590;2023-02-26T09:15:59;1.09;71.31
70246;SHT30;57637;49.272;8.590;2023-02-26T09:18:25;1.21;70.91
70246;SHT30;57637;49.272;8.590;2023-02-26T09:20:50;1.42;71.72
70246;SHT30;57637;49.272;8.590;2023-02-26T09:23:16;1.38;70.89
70246;SHT30;57637;49.272;8.590;2023-02-26T09:25:41;1.36;71.34
70246;SHT30;57637;49.272;8.590;2023-02-26T09:28:07;1.71;70.87
70246;SHT30;57637;49.272;8.590;2023-02-26T09:30:32;1.60;68.87
70246;SHT30;57637;49.272;8.590;2023-02-26T09:32:57;1.43;69.11
70246;SHT30;57637;49.272;8.590;2023-02-26T09:35:23;1.81;67.47
70246;SHT30;57637;49.272;8.590;2023-02-26T09:37:48;1.90;69.26
70246;SHT30;57637;49.272;8.590;2023-02-26T09:40:29;2.20;68.07
70246;SHT30;57637;49.272;8.590;2023-02-26T09:43:25;2.35;65.27
70246;SHT30;57637;49.272;8.590;2023-02-26T09:46:02;2.49;64.97
70246;SHT30;57637;49.272;8.590;2023-02-26T09:48:35;2.58;65.25
70246;SHT30;57637;49.272;8.590;2023-02-26T09:51:02;2.92;64.79
70246;SHT30;57637;49.272;8.590;2023-02-26T09:53:31;3.04;64.17
70246;SHT30;57637;49.272;8.590;2023-02-26T09:56:13;2.79;62.87
70246;SHT30;57637;49.272;8.590;2023-02-26T09:58:42;2.72;63.34
70246;SHT30;57637;49.272;8.590;2023-02-26T10:01:14;3.30;62.89
70246;SHT30;57637;49.272;8.590;2023-02-26T10:12:11;2.73;62.60
70246;SHT30;57637;49.272;8.590;2023-02-26T10:17:24;2.71;62.73
70246;SHT30;57637;49.272;8.590;2023-02-26T10:19:57;2.59;63.25
70246;SHT30;57637;49.272;8.590;2023-02-26T10:22:34;2.56;63.61
70246;SHT30;57637;49.272;8.590;2023-02-26T10:25:18;2.61;63.41
70246;SHT30;57637;49.272;8.590;2023-02-26T10:33:21;2.40;64.06
70246;SHT30;57637;49.272;8.590;2023-02-26T10:35:53;2.46;64.31
70246;SHT30;57637;49.272;8.590;2023-02-26T10:38:26;2.41;64.88
70246;SHT30;57637;49.272;8.590;2023-02-26T10:40:59;2.31;64.97
70246;SHT30;57637;49.272;8.590;2023-02-26T10:43:33;2.24;64.94
70246;SHT30;57637;49.272;8.590;2023-02-26T10:51:46;2.65;64.80
70246;SHT30;57637;49.272;8.590;2023-02-26T10:56:40;2.42;64.59
70246;SHT30;57637;49.272;8.590;2023-02-26T10:59:05;2.37;65.42
70246;SHT30;57637;49.272;8.590;2023-02-26T11:01:31;2.40;65.29
70246;SHT30;57637;49.272;8.590;2023-02-26T11:04:00;2.40;65.15
70246;SHT30;57637;49.272;8.590;2023-02-26T11:06:36;2.46;65.29
70246;SHT30;57637;49.272;8.590;2023-02-26T11:09:06;2.38;65.47
70246;SHT30;57637;49.272;8.590;2023-02-26T11:14:14;2.49;65.75
70246;SHT30;57637;49.272;8.590;2023-02-26T11:16:41;2.41;66.05
70246;SHT30;57637;49.272;8.590;2023-02-26T11:19:12;2.30;65.49
70246;SHT30;57637;49.272;8.590;2023-02-26T11:21:40;2.14;65.89
70246;SHT30;57637;49.272;8.590;2023-02-26T11:24:10;2.17;66.41
70246;SHT30;57637;49.272;8.590;2023-02-26T11:26:44;2.22;66.52
70246;SHT30;57637;49.272;8.590;2023-02-26T11:29:14;2.15;66.17
70246;SHT30;57637;49.272;8.590;2023-02-26T11:31:42;2.25;66.08
70246;SHT30;57637;49.272;8.590;2023-02-26T11:34:11;2.32;65.39
70246;SHT30;57637;49.272;8.590;2023-02-26T11:36:37;2.35;64.40
70246;SHT30;57637;49.272;8.590;2023-02-26T11:39:20;2.27;63.72
70246;SHT30;57637;49.272;8.590;2023-02-26T11:41:48;2.37;63.58
70246;SHT30;57637;49.272;8.590;2023-02-26T11:44:16;2.61;63.38
70246;SHT30;57637;49.272;8.590;2023-02-26T11:46:55;2.56;63.33
70246;SHT30;57637;49.272;8.590;2023-02-26T11:49:24;2.82;63.45
70246;SHT30;57637;49.272;8.590;2023-02-26T11:52:13;2.76;63.04
70246;SHT30;57637;49.272;8.590;2023-02-26T11:54:43;2.66;62.54
70246;SHT30;57637;49.272;8.590;2023-02-26T11:57:29;2.68;62.75
70246;SHT30;57637;49.272;8.590;2023-02-26T11:59:57;2.59;62.61
70246;SHT30;57637;49.272;8.590;2023-02-26T12:02:24;2.69;62.71
70246;SHT30;57637;49.272;8.590;2023-02-26T12:04:54;2.51;62.44
70246;SHT30;57637;49.272;8.590;2023-02-26T12:07:22;2.69;62.51
70246;SHT30;57637;49.272;8.590;2023-02-26T12:09:48;2.69;61.88
70246;SHT30;57637;49.272;8.590;2023-02-26T12:15:27;2.66;61.46
70246;SHT30;57637;49.272;8.590;2023-02-26T12:18:43;2.72;62.37
70246;SHT30;57637;49.272;8.590;2023-02-26T12:26:40;2.89;61.63
70246;SHT30;57637;49.272;8.590;2023-02-26T12:29:30;2.85;60.94
70246;SHT30;57637;49.272;8.590;2023-02-26T12:43:05;3.16;59.04
70246;SHT30;57637;49.272;8.590;2023-02-26T12:45:46;3.19;58.93
70246;SHT30;57637;49.272;8.590;2023-02-26T12:51:09;3.36;58.89
70246;SHT30;57637;49.272;8.590;2023-02-26T13:01:59;3.14;57.88
70246;SHT30;57637;49.272;8.590;2023-02-26T13:04:58;3.38;57.70
70246;SHT30;57637;49.272;8.590;2023-02-26T13:07:44;3.43;57.86
70246;SHT30;57637;49.272;8.590;2023-02-26T13:10:22;3.41;57.91
70246;SHT30;57637;49.272;8.590;2023-02-26T13:15:55;3.24;57.18
70246;SHT30;57637;49.272;8.590;2023-02-26T13:18:26;3.43;57.24
70246;SHT30;57637;49.272;8.590;2023-02-26T13:20:58;3.40;57.01
70246;SHT30;57637;49.272;8.590;2023-02-26T13:23:33;3.24;57.24
70246;SHT30;57637;49.272;8.590;2023-02-26T13:26:05;3.33;57.17
70246;SHT30;57637;49.272;8.590;2023-02-26T13:31:36;3.38;56.69
70246;SHT30;57637;49.272;8.590;2023-02-26T13:37:05;3.38;57.13
70246;SHT30;57637;49.272;8.590;2023-02-26T13:39:44;3.44;56.93
70246;SHT30;57637;49.272;8.590;2023-02-26T13:42:32;3.41;56.73
70246;SHT30;57637;49.272;8.590;2023-02-26T13:45:54;3.40;56.99
70246;SHT30;57637;49.272;8.590;2023-02-26T13:53:52;3.38;56.87
70246;SHT30;57637;49.272;8.590;2023-02-26T14:04:07;3.40;56.15
70246;SHT30;57637;49.272;8.590;2023-02-26T14:06:42;3.37;56.43
70246;SHT30;57637;49.272;8.590;2023-02-26T14:12:03;3.61;56.06
70246;SHT30;57637;49.272;8.590;2023-02-26T14:14:32;3.73;57.05
70246;SHT30;57637;49.272;8.590;2023-02-26T14:19:42;3.54;56.10
70246;SHT30;57637;49.272;8.590;2023-02-26T14:22:20;3.53;55.86
70246;SHT30;57637;49.272;8.590;2023-02-26T14:27:32;3.71;56.25
70246;SHT30;57637;49.272;8.590;2023-02-26T14:34:58;3.51;56.57
70246;SHT30;57637;49.272;8.590;2023-02-26T14:37:28;3.54;57.27
70246;SHT30;57637;49.272;8.590;2023-02-26T14:40:04;3.48;57.01
70246;SHT30;57637;49.272;8.590;2023-02-26T14:42:40;3.36;56.44
70246;SHT30;57637;49.272;8.590;2023-02-26T14:45:21;3.47;56.89
70246;SHT30;57637;49.272;8.590;2023-02-26T14:47:47;3.41;57.10
70246;SHT30;57637;49.272;8.590;2023-02-26T14:50:14;3.36;55.98
70246;SHT30;57637;49.272;8.590;2023-02-26T14:55:20;3.47;55.29
70246;SHT30;57637;49.272;8.590;2023-02-26T15:03:44;3.73;53.80
70246;SHT30;57637;49.272;8.590;2023-02-26T15:06:25;3.54;54.15
70246;SHT30;57637;49.272;8.590;2023-02-26T15:24:54;3.33;55.05
70246;SHT30;57637;49.272;8.590;2023-02-26T15:27:19;3.20;55.08
70246;SHT30;57637;49.272;8.590;2023-02-26T15:29:45;3.24;55.62
70246;SHT30;57637;49.272;8.590;2023-02-26T15:34:46;3.09;53.70
70246;SHT30;57637;49.272;8.590;2023-02-26T15:37:24;3.12;54.47
70246;SHT30;57637;49.272;8.590;2023-02-26T15:39:50;3.04;54.21
70246;SHT30;57637;49.272;8.590;2023-02-26T15:42:17;3.12;53.76
70246;SHT30;57637;49.272;8.590;2023-02-26T15:44:45;3.07;53.28
70246;SHT30;57637;49.272;8.590;2023-02-26T15:47:12;3.19;53.54
70246;SHT30;57637;49.272;8.590;2023-02-26T15:49:44;3.87;60.99
70246;SHT30;57637;49.272;8.590;2023-02-26T15:52:13;3.34;53.07
70246;SHT30;57637;49.272;8.590;2023-02-26T15:54:42;3.24;53.24
70246;SHT30;57637;49.272;8.590;2023-02-26T15:57:11;3.16;53.60
70246;SHT30;57637;49.272;8.590;2023-02-26T15:59:42;3.17;53.93
70246;SHT30;57637;49.272;8.590;2023-02-26T16:02:11;3.17;54.17
70246;SHT30;57637;49.272;8.590;2023-02-26T16:04:42;3.16;53.99
70246;SHT30;57637;49.272;8.590;2023-02-26T16:07:11;3.07;53.64
70246;SHT30;57637;49.272;8.590;2023-02-26T16:09:39;3.02;54.33
70246;SHT30;57637;49.272;8.590;2023-02-26T16:12:23;3.02;54.22
70246;SHT30;57637;49.272;8.590;2023-02-26T16:14:57;2.95;53.20
70246;SHT30;57637;49.272;8.590;2023-02-26T16:17:26;2.89;52.17
70246;SHT30;57637;49.272;8.590;2023-02-26T16:19:55;2.85;52.89
70246;SHT30;57637;49.272;8.590;2023-02-26T16:25:04;2.81;52.79
70246;SHT30;57637;49.272;8.590;2023-02-26T16:27:33;2.81;53.14
70246;SHT30;57637;49.272;8.590;2023-02-26T16:30:02;2.81;53.39
70246;SHT30;57637;49.272;8.590;2023-02-26T16:32:29;2.78;53.06
70246;SHT30;57637;49.272;8.590;2023-02-26T16:35:07;2.75;53.46
70246;SHT30;57637;49.272;8.590;2023-02-26T16:37:35;2.71;53.76
70246;SHT30;57637;49.272;8.590;2023-02-26T16:43:02;2.63;54.62
70246;SHT30;57637;49.272;8.590;2023-02-26T16:48:05;2.61;55.09
70246;SHT30;57637;49.272;8.590;2023-02-26T16:50:36;2.61;55.08
70246;SHT30;57637;49.272;8.590;2023-02-26T16:53:06;2.52;55.94
70246;SHT30;57637;49.272;8.590;2023-02-26T16:55:37;2.66;53.73
70246;SHT30;57637;49.272;8.590;2023-02-26T16:58:05;2.62;54.29
70246;SHT30;57637;49.272;8.590;2023-02-26T17:00:34;2.62;53.99
70246;SHT30;57637;49.272;8.590;2023-02-26T17:03:10;2.59;53.53
70246;SHT30;57637;49.272;8.590;2023-02-26T17:05:40;2.59;53.17
70246;SHT30;57637;49.272;8.590;2023-02-26T17:08:16;2.58;53.28
70246;SHT30;57637;49.272;8.590;2023-02-26T17:13:28;2.56;53.46
70246;SHT30;57637;49.272;8.590;2023-02-26T17:16:00;2.75;53.29
70246;SHT30;57637;49.272;8.590;2023-02-26T17:18:28;2.58;53.69
70246;SHT30;57637;49.272;8.590;2023-02-26T17:20:54;2.55;54.06
70246;SHT30;57637;49.272;8.590;2023-02-26T17:23:28;2.48;54.68
70246;SHT30;57637;49.272;8.590;2023-02-26T17:25:55;2.46;54.39
70246;SHT30;57637;49.272;8.590;2023-02-26T17:28:25;2.45;54.41
70246;SHT30;57637;49.272;8.590;2023-02-26T17:30:52;2.42;54.26
70246;SHT30;57637;49.272;8.590;2023-02-26T17:33:18;2.40;54.43
70246;SHT30;57637;49.272;8.590;2023-02-26T17:35:44;2.28;54.93
70246;SHT30;57637;49.272;8.590;2023-02-26T17:38:10;2.30;53.50
70246;SHT30;57637;49.272;8.590;2023-02-26T17:40:40;2.28;53.65
70246;SHT30;57637;49.272;8.590;2023-02-26T17:43:08;2.28;54.03
70246;SHT30;57637;49.272;8.590;2023-02-26T17:45:34;2.32;53.46
70246;SHT30;57637;49.272;8.590;2023-02-26T17:48:01;2.22;53.67
70246;SHT30;57637;49.272;8.590;2023-02-26T17:53:19;2.20;53.25
70246;SHT30;57637;49.272;8.590;2023-02-26T17:55:46;2.18;53.50
70246;SHT30;57637;49.272;8.590;2023-02-26T17:58:17;2.04;54.10
70246;SHT30;57637;49.272;8.590;2023-02-26T18:00:53;1.94;54.84
70246;SHT30;57637;49.272;8.590;2023-02-26T18:03:19;1.93;54.44
70246;SHT30;57637;49.272;8.590;2023-02-26T18:05:45;1.99;53.49
70246;SHT30;57637;49.272;8.590;2023-02-26T18:08:20;1.96;53.30
70246;SHT30;57637;49.272;8.590;2023-02-26T18:10:47;1.91;53.62
70246;SHT30;57637;49.272;8.590;2023-02-26T18:13:13;1.90;53.57
70246;SHT30;57637;49.272;8.590;2023-02-26T18:15:39;1.83;53.85
70246;SHT30;57637;49.272;8.590;2023-02-26T18:18:04;1.79;54.07
70246;SHT30;57637;49.272;8.590;2023-02-26T18:20:32;1.86;53.94
70246;SHT30;57637;49.272;8.590;2023-02-26T18:22:58;1.94;53.46
70246;SHT30;57637;49.272;8.590;2023-02-26T18:25:23;1.90;54.01
70246;SHT30;57637;49.272;8.590;2023-02-26T18:27:51;1.87;54.21
70246;SHT30;57637;49.272;8.590;2023-02-26T18:30:26;1.96;53.77
70246;SHT30;57637;49.272;8.590;2023-02-26T18:32:54;1.84;54.66
70246;SHT30;57637;49.272;8.590;2023-02-26T18:35:19;1.81;54.97
70246;SHT30;57637;49.272;8.590;2023-02-26T18:37:49;1.67;55.57
70246;SHT30;57637;49.272;8.590;2023-02-26T18:40:17;1.83;54.84
70246;SHT30;57637;49.272;8.590;2023-02-26T18:42:46;1.70;55.50
70246;SHT30;57637;49.272;8.590;2023-02-26T18:45:12;1.66;55.47
70246;SHT30;57637;49.272;8.590;2023-02-26T18:47:38;1.60;55.52
70246;SHT30;57637;49.272;8.590;2023-02-26T18:50:03;1.59;55.37
70246;SHT30;57637;49.272;8.590;2023-02-26T18:52:30;1.55;55.25
70246;SHT30;57637;49.272;8.590;2023-02-26T18:54:56;1.49;55.64
70246;SHT30;57637;49.272;8.590;2023-02-26T18:57:21;1.43;55.56
70246;SHT30;57637;49.272;8.590;2023-02-26T18:59:47;1.66;54.09
70246;SHT30;57637;49.272;8.590;2023-02-26T19:02:12;1.64;53.83
70246;SHT30;57637;49.272;8.590;2023-02-26T19:04:38;1.48;54.71